createdAt,value
2017-04-24T00:00:01.426Z,811.85
2017-04-24T00:00:06.085Z,811.89
2017-04-24T00:00:10.403Z,811.86
2017-04-24T00:00:14.714Z,811.85
2017-04-24T00:00:19.134Z,811.85
2017-04-24T00:00:23.565Z,811.8
2017-04-24T00:00:28.007Z,811.84
2017-04-24T00:00:32.314Z,811.84
2017-04-24T00:00:36.739Z,811.81
2017-04-24T00:00:41.172Z,811.84
2017-04-24T00:00:45.605Z,811.82
2017-04-24T00:00:49.906Z,811.8
2017-04-24T00:00:54.215Z,811.79
2017-04-24T00:00:58.647Z,811.77
2017-04-24T00:01:02.956Z,811.76
2017-04-24T00:01:07.375Z,811.76
2017-04-24T00:01:11.678Z,811.77
2017-04-24T00:01:15.872Z,811.76
2017-04-24T00:01:20.181Z,811.76
2017-04-24T00:01:24.597Z,811.73
2017-04-24T00:01:28.909Z,811.78
2017-04-24T00:01:33.246Z,811.81
2017-04-24T00:01:37.551Z,811.73
2017-04-24T00:01:41.971Z,811.78
2017-04-24T00:01:46.397Z,811.79
2017-04-24T00:01:50.840Z,811.77
2017-04-24T00:01:55.268Z,811.78
2017-04-24T00:01:59.691Z,811.79
2017-04-24T00:02:04.120Z,811.76
2017-04-24T00:02:08.434Z,811.77
2017-04-24T00:02:12.856Z,811.77
2017-04-24T00:02:17.170Z,811.81
2017-04-24T00:02:21.622Z,811.76
2017-04-24T00:02:26.048Z,811.74
2017-04-24T00:02:30.349Z,811.76
2017-04-24T00:02:34.776Z,811.77
2017-04-24T00:02:39.208Z,811.78
2017-04-24T00:02:43.652Z,811.77
2017-04-24T00:02:48.087Z,811.79
2017-04-24T00:02:52.404Z,811.8
2017-04-24T00:02:56.864Z,811.75
2017-04-24T00:03:01.288Z,811.77
2017-04-24T00:03:05.592Z,811.77
2017-04-24T00:03:09.793Z,811.77
2017-04-24T00:03:14.249Z,811.73
2017-04-24T00:03:18.675Z,811.71
2017-04-24T00:03:23.105Z,811.73
2017-04-24T00:03:27.531Z,811.81
2017-04-24T00:03:31.971Z,811.76
2017-04-24T00:03:36.390Z,811.73
2017-04-24T00:03:40.702Z,811.75
2017-04-24T00:03:45.142Z,811.81
2017-04-24T00:03:49.576Z,811.8
2017-04-24T00:03:53.883Z,811.83
2017-04-24T00:03:58.312Z,811.8
2017-04-24T00:04:02.738Z,811.79
2017-04-24T00:04:07.165Z,811.78
2017-04-24T00:04:11.599Z,811.79
2017-04-24T00:04:15.915Z,811.81
2017-04-24T00:04:20.346Z,811.78
2017-04-24T00:04:24.784Z,811.78
2017-04-24T00:04:29.101Z,811.8
2017-04-24T00:04:33.551Z,811.8
2017-04-24T00:04:37.998Z,811.74
2017-04-24T00:04:42.185Z,811.78
2017-04-24T00:04:46.610Z,811.84
2017-04-24T00:04:50.926Z,811.82
2017-04-24T00:04:55.140Z,811.8
2017-04-24T00:04:59.563Z,811.81
2017-04-24T00:05:03.988Z,811.82
2017-04-24T00:05:08.310Z,811.83
2017-04-24T00:05:12.609Z,811.83
2017-04-24T00:05:17.032Z,811.85
2017-04-24T00:05:21.351Z,811.85
2017-04-24T00:05:25.778Z,811.87
2017-04-24T00:05:30.201Z,811.84
2017-04-24T00:05:34.385Z,811.83
2017-04-24T00:05:38.818Z,811.89
2017-04-24T00:05:43.126Z,811.88
2017-04-24T00:05:47.570Z,811.88
2017-04-24T00:05:51.996Z,811.89
2017-04-24T00:05:56.307Z,811.88
2017-04-24T00:06:00.726Z,811.89
2017-04-24T00:06:05.477Z,811.88
2017-04-24T00:06:09.791Z,811.87
2017-04-24T00:06:14.008Z,811.83
2017-04-24T00:06:18.355Z,811.85
2017-04-24T00:06:22.657Z,811.86
2017-04-24T00:06:26.994Z,811.88
2017-04-24T00:06:31.438Z,811.89
2017-04-24T00:06:35.863Z,811.84
2017-04-24T00:06:40.284Z,811.85
2017-04-24T00:06:44.709Z,811.89
2017-04-24T00:06:49.134Z,811.92
2017-04-24T00:06:53.436Z,811.88
2017-04-24T00:06:57.864Z,811.92
2017-04-24T00:07:02.295Z,811.89
2017-04-24T00:07:06.598Z,811.89
2017-04-24T00:07:11.030Z,811.87
2017-04-24T00:07:15.451Z,811.9
2017-04-24T00:07:19.661Z,811.89
2017-04-24T00:07:23.970Z,811.9
2017-04-24T00:07:28.385Z,811.91
2017-04-24T00:07:32.694Z,811.9
2017-04-24T00:07:37.123Z,811.91
2017-04-24T00:07:41.554Z,811.88
2017-04-24T00:07:46.000Z,811.9
2017-04-24T00:07:50.198Z,811.91
2017-04-24T00:07:54.419Z,811.88
2017-04-24T00:07:58.848Z,811.91
2017-04-24T00:08:03.276Z,811.91
2017-04-24T00:08:07.702Z,811.9
2017-04-24T00:08:11.914Z,811.89
2017-04-24T00:08:16.226Z,811.9
2017-04-24T00:08:20.655Z,811.95
2017-04-24T00:08:25.102Z,811.91
2017-04-24T00:08:29.550Z,811.9
2017-04-24T00:08:33.863Z,811.89
2017-04-24T00:08:38.294Z,811.89
2017-04-24T00:08:42.745Z,811.89
2017-04-24T00:08:47.170Z,811.91
2017-04-24T00:08:51.593Z,811.91
2017-04-24T00:08:55.797Z,811.92
2017-04-24T00:09:00.221Z,811.91
2017-04-24T00:09:04.995Z,811.92
2017-04-24T00:09:09.428Z,811.91
2017-04-24T00:09:13.865Z,811.91
2017-04-24T00:09:18.293Z,811.93
2017-04-24T00:09:22.718Z,811.91
2017-04-24T00:09:26.915Z,811.93
2017-04-24T00:09:31.224Z,811.88
2017-04-24T00:09:35.643Z,811.93
2017-04-24T00:09:40.067Z,811.89
2017-04-24T00:09:44.504Z,811.89
2017-04-24T00:09:48.932Z,811.89
2017-04-24T00:09:53.368Z,811.89
2017-04-24T00:09:57.679Z,811.89
2017-04-24T00:10:02.113Z,811.91
2017-04-24T00:10:06.425Z,811.92
2017-04-24T00:10:10.728Z,811.89
2017-04-24T00:10:15.033Z,811.89
2017-04-24T00:10:19.460Z,811.88
2017-04-24T00:10:23.892Z,811.9
2017-04-24T00:10:28.090Z,811.91
2017-04-24T00:10:32.516Z,811.88
2017-04-24T00:10:36.982Z,811.9
2017-04-24T00:10:41.420Z,811.91
2017-04-24T00:10:45.844Z,811.9
2017-04-24T00:10:50.279Z,811.9
2017-04-24T00:10:54.701Z,811.88
2017-04-24T00:10:59.021Z,811.88
2017-04-24T00:11:03.324Z,811.86
2017-04-24T00:11:07.756Z,811.87
2017-04-24T00:11:12.066Z,811.9
2017-04-24T00:11:16.374Z,811.88
2017-04-24T00:11:20.800Z,811.91
2017-04-24T00:11:25.226Z,811.88
2017-04-24T00:11:29.662Z,811.86
2017-04-24T00:11:33.969Z,811.83
2017-04-24T00:11:38.394Z,811.9
2017-04-24T00:11:42.816Z,811.91
2017-04-24T00:11:47.271Z,811.93
2017-04-24T00:11:51.699Z,811.94
2017-04-24T00:11:56.124Z,811.95
2017-04-24T00:12:00.434Z,811.91
2017-04-24T00:12:04.870Z,811.92
2017-04-24T00:12:09.209Z,811.93
2017-04-24T00:12:13.398Z,811.91
2017-04-24T00:12:17.820Z,811.94
2017-04-24T00:12:22.253Z,811.93
2017-04-24T00:12:26.692Z,811.93
2017-04-24T00:12:31.118Z,811.91
2017-04-24T00:12:35.421Z,811.92
2017-04-24T00:12:39.861Z,811.95
2017-04-24T00:12:44.291Z,811.91
2017-04-24T00:12:48.719Z,811.93
2017-04-24T00:12:53.151Z,811.91
2017-04-24T00:12:57.461Z,811.89
2017-04-24T00:13:01.891Z,811.91
2017-04-24T00:13:06.248Z,811.91
2017-04-24T00:13:10.563Z,811.9
2017-04-24T00:13:14.647Z,811.9
2017-04-24T00:13:19.071Z,811.91
2017-04-24T00:13:23.267Z,811.89
2017-04-24T00:13:27.691Z,811.87
2017-04-24T00:13:32.127Z,811.86
2017-04-24T00:13:36.556Z,811.85
2017-04-24T00:13:40.990Z,811.85
2017-04-24T00:13:45.428Z,811.87
2017-04-24T00:13:49.884Z,811.86
2017-04-24T00:13:54.304Z,811.8
2017-04-24T00:13:58.505Z,811.82
2017-04-24T00:14:03.070Z,811.8
2017-04-24T00:14:07.516Z,811.79
2017-04-24T00:14:11.715Z,811.82
2017-04-24T00:14:16.025Z,811.8
2017-04-24T00:14:20.337Z,811.82
2017-04-24T00:14:24.769Z,811.79
2017-04-24T00:14:29.196Z,811.77
2017-04-24T00:14:33.625Z,811.77
2017-04-24T00:14:38.061Z,811.8
2017-04-24T00:14:42.494Z,811.79
2017-04-24T00:14:46.920Z,811.75
2017-04-24T00:14:51.111Z,811.74
2017-04-24T00:14:55.558Z,811.73
2017-04-24T00:14:59.868Z,811.76
2017-04-24T00:15:04.497Z,811.75
2017-04-24T00:15:08.921Z,811.69
2017-04-24T00:15:13.257Z,811.72
2017-04-24T00:15:17.678Z,811.71
2017-04-24T00:15:22.102Z,811.69
2017-04-24T00:15:26.569Z,811.71
2017-04-24T00:15:31.002Z,811.68
2017-04-24T00:15:35.308Z,811.64
2017-04-24T00:15:39.623Z,811.64
2017-04-24T00:15:44.057Z,811.67
2017-04-24T00:15:48.485Z,811.64
2017-04-24T00:15:52.908Z,811.66
2017-04-24T00:15:57.332Z,811.65
2017-04-24T00:16:01.837Z,811.66
2017-04-24T00:16:06.261Z,811.64
2017-04-24T00:16:10.568Z,811.63
2017-04-24T00:16:14.753Z,811.6
2017-04-24T00:16:19.191Z,811.58
2017-04-24T00:16:23.613Z,811.61
2017-04-24T00:16:28.034Z,811.58
2017-04-24T00:16:32.217Z,811.59
2017-04-24T00:16:36.643Z,811.57
2017-04-24T00:16:41.085Z,811.57
2017-04-24T00:16:45.502Z,811.54
2017-04-24T00:16:49.950Z,811.57
2017-04-24T00:16:54.379Z,811.56
2017-04-24T00:16:58.797Z,811.51
2017-04-24T00:17:03.352Z,811.5
2017-04-24T00:17:07.780Z,811.49
2017-04-24T00:17:11.978Z,811.51
2017-04-24T00:17:16.406Z,811.51
2017-04-24T00:17:20.835Z,811.47
2017-04-24T00:17:25.264Z,811.47
2017-04-24T00:17:29.700Z,811.47
2017-04-24T00:17:34.007Z,811.46
2017-04-24T00:17:38.439Z,811.43
2017-04-24T00:17:42.878Z,811.43
2017-04-24T00:17:47.303Z,811.41
2017-04-24T00:17:51.509Z,811.41
2017-04-24T00:17:55.937Z,811.41
2017-04-24T00:18:00.371Z,811.41
2017-04-24T00:18:05.154Z,811.38
2017-04-24T00:18:09.482Z,811.39
2017-04-24T00:18:13.804Z,811.37
2017-04-24T00:18:18.227Z,811.35
2017-04-24T00:18:22.662Z,811.35
2017-04-24T00:18:27.117Z,811.35
2017-04-24T00:18:31.422Z,811.32
2017-04-24T00:18:35.729Z,811.31
2017-04-24T00:18:40.160Z,811.33
2017-04-24T00:18:44.592Z,811.29
2017-04-24T00:18:49.044Z,811.29
2017-04-24T00:18:53.472Z,811.28
2017-04-24T00:18:57.908Z,811.28
2017-04-24T00:19:02.634Z,811.26
2017-04-24T00:19:07.056Z,811.3
2017-04-24T00:19:11.372Z,811.23
2017-04-24T00:19:15.712Z,811.21
2017-04-24T00:19:20.147Z,811.25
2017-04-24T00:19:24.571Z,811.23
2017-04-24T00:19:28.882Z,811.22
2017-04-24T00:19:33.083Z,811.24
2017-04-24T00:19:37.503Z,811.19
2017-04-24T00:19:41.926Z,811.19
2017-04-24T00:19:46.348Z,811.18
2017-04-24T00:19:50.820Z,811.13
2017-04-24T00:19:55.241Z,811.13
2017-04-24T00:19:59.680Z,811.15
2017-04-24T00:20:03.993Z,811.16
2017-04-24T00:20:08.302Z,811.17
2017-04-24T00:20:12.492Z,811.16
2017-04-24T00:20:16.912Z,811.13
2017-04-24T00:20:21.223Z,811.12
2017-04-24T00:20:25.677Z,811.14
2017-04-24T00:20:30.097Z,811.12
2017-04-24T00:20:34.523Z,811.12
2017-04-24T00:20:38.950Z,811.13
2017-04-24T00:20:43.384Z,811.1
2017-04-24T00:20:47.818Z,811.1
2017-04-24T00:20:52.236Z,811.08
2017-04-24T00:20:56.666Z,811.07
2017-04-24T00:21:01.002Z,811.05
2017-04-24T00:21:05.725Z,811.07
2017-04-24T00:21:10.029Z,811.07
2017-04-24T00:21:14.469Z,811.07
2017-04-24T00:21:18.777Z,811.05
2017-04-24T00:21:23.195Z,811.03
2017-04-24T00:21:27.617Z,811.04
2017-04-24T00:21:31.935Z,811.03
2017-04-24T00:21:36.362Z,811.01
2017-04-24T00:21:40.782Z,811.02
2017-04-24T00:21:45.201Z,811
2017-04-24T00:21:49.625Z,811
2017-04-24T00:21:54.058Z,811.01
2017-04-24T00:21:58.372Z,810.98
2017-04-24T00:22:02.676Z,810.99
2017-04-24T00:22:06.866Z,811
2017-04-24T00:22:11.300Z,811
2017-04-24T00:22:15.722Z,810.99
2017-04-24T00:22:20.148Z,810.98
2017-04-24T00:22:24.570Z,810.99
2017-04-24T00:22:29.020Z,810.97
2017-04-24T00:22:33.443Z,810.95
2017-04-24T00:22:37.867Z,810.95
2017-04-24T00:22:42.318Z,810.95
2017-04-24T00:22:46.511Z,810.94
2017-04-24T00:22:50.930Z,810.96
2017-04-24T00:22:55.244Z,810.97
2017-04-24T00:22:59.681Z,810.96
2017-04-24T00:23:04.110Z,810.97
2017-04-24T00:23:08.419Z,810.93
2017-04-24T00:23:12.765Z,810.89
2017-04-24T00:23:17.075Z,810.93
2017-04-24T00:23:21.509Z,810.9
2017-04-24T00:23:25.945Z,810.93
2017-04-24T00:23:30.271Z,810.95
2017-04-24T00:23:34.579Z,810.89
2017-04-24T00:23:39.003Z,810.88
2017-04-24T00:23:43.435Z,810.9
2017-04-24T00:23:47.750Z,810.88
2017-04-24T00:23:52.210Z,810.91
2017-04-24T00:23:56.645Z,810.92
2017-04-24T00:24:01.067Z,810.9
2017-04-24T00:24:05.489Z,810.89
2017-04-24T00:24:09.917Z,810.87
2017-04-24T00:24:14.221Z,810.89
2017-04-24T00:24:18.532Z,810.86
2017-04-24T00:24:22.962Z,810.87
2017-04-24T00:24:27.395Z,810.91
2017-04-24T00:24:31.703Z,810.86
2017-04-24T00:24:36.008Z,810.83
2017-04-24T00:24:40.436Z,810.86
2017-04-24T00:24:44.754Z,810.84
2017-04-24T00:24:49.188Z,810.88
2017-04-24T00:24:53.615Z,810.9
2017-04-24T00:24:58.037Z,810.87
2017-04-24T00:25:02.768Z,810.9
2017-04-24T00:25:07.071Z,810.85
2017-04-24T00:25:11.371Z,810.88
2017-04-24T00:25:15.558Z,810.88
2017-04-24T00:25:19.995Z,810.87
2017-04-24T00:25:24.433Z,810.89
2017-04-24T00:25:28.859Z,810.89
2017-04-24T00:25:33.283Z,810.88
2017-04-24T00:25:37.731Z,810.9
2017-04-24T00:25:42.168Z,810.93
2017-04-24T00:25:46.602Z,810.96
2017-04-24T00:25:51.043Z,810.88
2017-04-24T00:25:55.481Z,810.87
2017-04-24T00:25:59.910Z,810.87
2017-04-24T00:26:04.213Z,810.9
2017-04-24T00:26:08.640Z,810.89
2017-04-24T00:26:13.080Z,810.9
2017-04-24T00:26:17.391Z,810.95
2017-04-24T00:26:21.817Z,810.95
2017-04-24T00:26:26.234Z,810.99
2017-04-24T00:26:30.674Z,810.98
2017-04-24T00:26:35.095Z,810.97
2017-04-24T00:26:39.522Z,810.93
2017-04-24T00:26:43.831Z,810.91
2017-04-24T00:26:48.279Z,810.92
2017-04-24T00:26:52.705Z,810.97
2017-04-24T00:26:57.125Z,810.93
2017-04-24T00:27:01.754Z,810.98
2017-04-24T00:27:06.075Z,811
2017-04-24T00:27:10.260Z,811.02
2017-04-24T00:27:14.566Z,811.01
2017-04-24T00:27:18.992Z,811
2017-04-24T00:27:23.427Z,811.03
2017-04-24T00:27:27.736Z,811
2017-04-24T00:27:32.044Z,811
2017-04-24T00:27:36.483Z,810.99
2017-04-24T00:27:40.915Z,811.02
2017-04-24T00:27:45.349Z,810.99
2017-04-24T00:27:49.777Z,811
2017-04-24T00:27:54.218Z,811.02
2017-04-24T00:27:58.646Z,811
2017-04-24T00:28:03.106Z,810.98
2017-04-24T00:28:07.412Z,811.03
2017-04-24T00:28:11.762Z,811.07
2017-04-24T00:28:16.083Z,811.03
2017-04-24T00:28:20.507Z,811.04
2017-04-24T00:28:24.929Z,811.04
2017-04-24T00:28:29.245Z,811.03
2017-04-24T00:28:33.687Z,811.04
2017-04-24T00:28:38.112Z,811.04
2017-04-24T00:28:42.558Z,811.03
2017-04-24T00:28:46.988Z,811.05
2017-04-24T00:28:51.422Z,811.04
2017-04-24T00:28:55.857Z,811.04
2017-04-24T00:29:00.291Z,811.07
2017-04-24T00:29:04.723Z,811.06
2017-04-24T00:29:09.032Z,811.05
2017-04-24T00:29:13.226Z,811.06
2017-04-24T00:29:17.660Z,811.07
2017-04-24T00:29:22.117Z,811.03
2017-04-24T00:29:26.420Z,811.05
2017-04-24T00:29:30.730Z,811.05
2017-04-24T00:29:35.033Z,811.07
2017-04-24T00:29:39.461Z,811.06
2017-04-24T00:29:43.884Z,811.06
2017-04-24T00:29:48.305Z,811.05
2017-04-24T00:29:52.737Z,811.09
2017-04-24T00:29:57.049Z,811.01
2017-04-24T00:30:01.829Z,811.05
2017-04-24T00:30:06.128Z,811.09
2017-04-24T00:30:10.436Z,811.05
2017-04-24T00:30:14.645Z,811.08
2017-04-24T00:30:19.079Z,811.05
2017-04-24T00:30:23.501Z,811.07
2017-04-24T00:30:27.928Z,811.04
2017-04-24T00:30:31.998Z,811.07
2017-04-24T00:30:36.416Z,811.01
2017-04-24T00:30:40.847Z,811.03
2017-04-24T00:30:45.287Z,811.05
2017-04-24T00:30:49.709Z,811.05
2017-04-24T00:30:54.132Z,811.04
2017-04-24T00:30:58.444Z,811
2017-04-24T00:31:02.897Z,811.02
2017-04-24T00:31:07.324Z,811.02
2017-04-24T00:31:11.630Z,811.01
2017-04-24T00:31:15.947Z,811.02
2017-04-24T00:31:20.159Z,811.02
2017-04-24T00:31:24.583Z,810.97
2017-04-24T00:31:28.895Z,811.01
2017-04-24T00:31:33.321Z,811.02
2017-04-24T00:31:37.747Z,811
2017-04-24T00:31:42.167Z,811.01
2017-04-24T00:31:46.597Z,810.97
2017-04-24T00:31:51.046Z,810.97
2017-04-24T00:31:55.466Z,811.02
2017-04-24T00:31:59.886Z,810.99
2017-04-24T00:32:04.293Z,810.98
2017-04-24T00:32:08.606Z,810.99
2017-04-24T00:32:13.030Z,810.99
2017-04-24T00:32:17.345Z,811
2017-04-24T00:32:21.773Z,810.98
2017-04-24T00:32:26.202Z,810.96
2017-04-24T00:32:30.512Z,810.97
2017-04-24T00:32:34.933Z,810.98
2017-04-24T00:32:39.251Z,810.93
2017-04-24T00:32:43.711Z,810.95
2017-04-24T00:32:48.139Z,810.98
2017-04-24T00:32:52.567Z,810.95
2017-04-24T00:32:57.030Z,810.92
2017-04-24T00:33:01.455Z,810.93
2017-04-24T00:33:05.984Z,810.94
2017-04-24T00:33:10.418Z,810.91
2017-04-24T00:33:14.499Z,810.92
2017-04-24T00:33:18.928Z,810.93
2017-04-24T00:33:23.354Z,810.95
2017-04-24T00:33:27.785Z,810.95
2017-04-24T00:33:32.216Z,810.86
2017-04-24T00:33:36.641Z,810.85
2017-04-24T00:33:41.063Z,810.89
2017-04-24T00:33:45.509Z,810.92
2017-04-24T00:33:49.949Z,810.88
2017-04-24T00:33:54.376Z,810.88
2017-04-24T00:33:58.809Z,810.92
2017-04-24T00:34:03.244Z,810.89
2017-04-24T00:34:07.320Z,810.89
2017-04-24T00:34:11.504Z,810.87
2017-04-24T00:34:15.824Z,810.87
2017-04-24T00:34:20.136Z,810.86
2017-04-24T00:34:24.568Z,810.88
2017-04-24T00:34:29.000Z,810.86
2017-04-24T00:34:33.309Z,810.88
2017-04-24T00:34:37.746Z,810.84
2017-04-24T00:34:42.177Z,810.85
2017-04-24T00:34:46.605Z,810.83
2017-04-24T00:34:51.033Z,810.82
2017-04-24T00:34:55.467Z,810.82
2017-04-24T00:34:59.897Z,810.81
2017-04-24T00:35:04.239Z,810.83
2017-04-24T00:35:08.438Z,810.8
2017-04-24T00:35:12.753Z,810.81
2017-04-24T00:35:16.821Z,810.79
2017-04-24T00:35:21.126Z,810.79
2017-04-24T00:35:25.555Z,810.77
2017-04-24T00:35:29.984Z,810.79
2017-04-24T00:35:34.405Z,810.76
2017-04-24T00:35:38.823Z,810.82
2017-04-24T00:35:43.146Z,810.8
2017-04-24T00:35:47.588Z,810.76
2017-04-24T00:35:52.011Z,810.75
2017-04-24T00:35:56.436Z,810.77
2017-04-24T00:36:00.754Z,810.77
2017-04-24T00:36:05.240Z,810.73
2017-04-24T00:36:09.305Z,810.7
2017-04-24T00:36:13.610Z,810.73
2017-04-24T00:36:17.916Z,810.74
2017-04-24T00:36:22.351Z,810.73
2017-04-24T00:36:26.776Z,810.71
2017-04-24T00:36:31.078Z,810.71
2017-04-24T00:36:35.518Z,810.69
2017-04-24T00:36:39.964Z,810.71
2017-04-24T00:36:44.384Z,810.71
2017-04-24T00:36:48.810Z,810.67
2017-04-24T00:36:53.236Z,810.65
2017-04-24T00:36:57.663Z,810.66
2017-04-24T00:37:02.218Z,810.68
2017-04-24T00:37:06.413Z,810.68
2017-04-24T00:37:10.612Z,810.65
2017-04-24T00:37:14.698Z,810.61
2017-04-24T00:37:19.004Z,810.6
2017-04-24T00:37:23.432Z,810.59
2017-04-24T00:37:27.866Z,810.58
2017-04-24T00:37:32.288Z,810.58
2017-04-24T00:37:36.715Z,810.58
2017-04-24T00:37:41.028Z,810.56
2017-04-24T00:37:45.459Z,810.61
2017-04-24T00:37:49.897Z,810.59
2017-04-24T00:37:54.099Z,810.63
2017-04-24T00:37:58.399Z,810.63
2017-04-24T00:38:02.831Z,810.62
2017-04-24T00:38:07.260Z,810.6
2017-04-24T00:38:11.575Z,810.62
2017-04-24T00:38:15.884Z,810.63
2017-04-24T00:38:20.207Z,810.62
2017-04-24T00:38:24.642Z,810.57
2017-04-24T00:38:29.074Z,810.58
2017-04-24T00:38:33.503Z,810.59
2017-04-24T00:38:37.928Z,810.58
2017-04-24T00:38:42.359Z,810.59
2017-04-24T00:38:46.788Z,810.57
2017-04-24T00:38:51.212Z,810.58
2017-04-24T00:38:55.403Z,810.57
2017-04-24T00:38:59.833Z,810.57
2017-04-24T00:39:04.253Z,810.55
2017-04-24T00:39:08.677Z,810.57
2017-04-24T00:39:12.987Z,810.55
2017-04-24T00:39:17.426Z,810.53
2017-04-24T00:39:21.743Z,810.56
2017-04-24T00:39:26.170Z,810.55
2017-04-24T00:39:30.487Z,810.52
2017-04-24T00:39:34.939Z,810.49
2017-04-24T00:39:39.363Z,810.55
2017-04-24T00:39:43.790Z,810.51
2017-04-24T00:39:47.979Z,810.58
2017-04-24T00:39:52.414Z,810.53
2017-04-24T00:39:56.846Z,810.52
2017-04-24T00:40:01.272Z,810.5
2017-04-24T00:40:05.782Z,810.56
2017-04-24T00:40:09.751Z,810.5
2017-04-24T00:40:13.942Z,810.49
2017-04-24T00:40:18.371Z,810.48
2017-04-24T00:40:22.575Z,810.49
2017-04-24T00:40:27.019Z,810.5
2017-04-24T00:40:31.322Z,810.48
2017-04-24T00:40:35.745Z,810.46
2017-04-24T00:40:40.168Z,810.43
2017-04-24T00:40:44.609Z,810.5
2017-04-24T00:40:48.917Z,810.53
2017-04-24T00:40:53.337Z,810.49
2017-04-24T00:40:57.760Z,810.5
2017-04-24T00:41:02.186Z,810.51
2017-04-24T00:41:06.615Z,810.45
2017-04-24T00:41:11.036Z,810.44
2017-04-24T00:41:15.379Z,810.42
2017-04-24T00:41:19.805Z,810.44
2017-04-24T00:41:24.111Z,810.51
2017-04-24T00:41:28.530Z,810.49
2017-04-24T00:41:32.968Z,810.5
2017-04-24T00:41:37.274Z,810.51
2017-04-24T00:41:41.588Z,810.5
2017-04-24T00:41:45.899Z,810.5
2017-04-24T00:41:50.209Z,810.47
2017-04-24T00:41:54.629Z,810.5
2017-04-24T00:41:59.055Z,810.52
2017-04-24T00:42:03.727Z,810.51
2017-04-24T00:42:08.157Z,810.48
2017-04-24T00:42:12.467Z,810.52
2017-04-24T00:42:16.773Z,810.49
2017-04-24T00:42:21.201Z,810.5
2017-04-24T00:42:25.629Z,810.5
2017-04-24T00:42:29.935Z,810.49
2017-04-24T00:42:34.255Z,810.49
2017-04-24T00:42:38.689Z,810.49
2017-04-24T00:42:43.144Z,810.51
2017-04-24T00:42:47.566Z,810.47
2017-04-24T00:42:51.997Z,810.49
2017-04-24T00:42:56.480Z,810.5
2017-04-24T00:43:00.911Z,810.47
2017-04-24T00:43:05.341Z,810.45
2017-04-24T00:43:09.655Z,810.51
2017-04-24T00:43:13.978Z,810.48
2017-04-24T00:43:18.416Z,810.48
2017-04-24T00:43:22.843Z,810.45
2017-04-24T00:43:27.272Z,810.46
2017-04-24T00:43:31.465Z,810.46
2017-04-24T00:43:35.781Z,810.45
2017-04-24T00:43:40.213Z,810.47
2017-04-24T00:43:44.637Z,810.48
2017-04-24T00:43:49.067Z,810.5
2017-04-24T00:43:53.502Z,810.48
2017-04-24T00:43:57.934Z,810.49
2017-04-24T00:44:02.662Z,810.47
2017-04-24T00:44:07.099Z,810.48
2017-04-24T00:44:11.290Z,810.51
2017-04-24T00:44:15.592Z,810.51
2017-04-24T00:44:20.036Z,810.46
2017-04-24T00:44:24.472Z,810.5
2017-04-24T00:44:28.900Z,810.45
2017-04-24T00:44:33.327Z,810.47
2017-04-24T00:44:37.769Z,810.48
2017-04-24T00:44:42.107Z,810.46
2017-04-24T00:44:46.530Z,810.5
2017-04-24T00:44:50.953Z,810.48
2017-04-24T00:44:55.382Z,810.49
2017-04-24T00:44:59.814Z,810.45
2017-04-24T00:45:04.274Z,810.49
2017-04-24T00:45:08.586Z,810.53
2017-04-24T00:45:12.777Z,810.51
2017-04-24T00:45:17.085Z,810.49
2017-04-24T00:45:21.506Z,810.5
2017-04-24T00:45:25.935Z,810.49
2017-04-24T00:45:30.367Z,810.51
2017-04-24T00:45:34.795Z,810.49
2017-04-24T00:45:39.103Z,810.5
2017-04-24T00:45:43.529Z,810.5
2017-04-24T00:45:47.844Z,810.47
2017-04-24T00:45:52.265Z,810.5
2017-04-24T00:45:56.693Z,810.51
2017-04-24T00:46:01.123Z,810.51
2017-04-24T00:46:05.650Z,810.47
2017-04-24T00:46:10.086Z,810.51
2017-04-24T00:46:14.270Z,810.51
2017-04-24T00:46:18.693Z,810.5
2017-04-24T00:46:23.122Z,810.51
2017-04-24T00:46:27.539Z,810.54
2017-04-24T00:46:31.838Z,810.51
2017-04-24T00:46:36.258Z,810.5
2017-04-24T00:46:40.688Z,810.57
2017-04-24T00:46:45.113Z,810.49
2017-04-24T00:46:49.542Z,810.53
2017-04-24T00:46:53.975Z,810.5
2017-04-24T00:46:58.312Z,810.54
2017-04-24T00:47:02.741Z,810.54
2017-04-24T00:47:07.166Z,810.54
2017-04-24T00:47:11.495Z,810.55
2017-04-24T00:47:15.924Z,810.56
2017-04-24T00:47:20.344Z,810.56
2017-04-24T00:47:24.652Z,810.57
2017-04-24T00:47:28.853Z,810.58
2017-04-24T00:47:33.280Z,810.55
2017-04-24T00:47:37.713Z,810.57
2017-04-24T00:47:42.150Z,810.54
2017-04-24T00:47:46.580Z,810.58
2017-04-24T00:47:51.022Z,810.59
2017-04-24T00:47:55.449Z,810.59
2017-04-24T00:47:59.884Z,810.6
2017-04-24T00:48:04.351Z,810.63
2017-04-24T00:48:08.546Z,810.63
2017-04-24T00:48:12.738Z,810.63
2017-04-24T00:48:17.180Z,810.63
2017-04-24T00:48:21.618Z,810.65
2017-04-24T00:48:25.835Z,810.66
2017-04-24T00:48:30.257Z,810.66
2017-04-24T00:48:34.702Z,810.66
2017-04-24T00:48:39.130Z,810.68
2017-04-24T00:48:43.565Z,810.68
2017-04-24T00:48:48.000Z,810.66
2017-04-24T00:48:52.435Z,810.69
2017-04-24T00:48:56.863Z,810.7
2017-04-24T00:49:01.292Z,810.71
2017-04-24T00:49:05.722Z,810.7
2017-04-24T00:49:10.040Z,810.71
2017-04-24T00:49:14.463Z,810.7
2017-04-24T00:49:18.550Z,810.71
2017-04-24T00:49:22.752Z,810.73
2017-04-24T00:49:27.189Z,810.74
2017-04-24T00:49:31.623Z,810.71
2017-04-24T00:49:36.045Z,810.73
2017-04-24T00:49:40.470Z,810.71
2017-04-24T00:49:44.920Z,810.74
2017-04-24T00:49:49.345Z,810.75
2017-04-24T00:49:53.765Z,810.75
2017-04-24T00:49:58.079Z,810.74
2017-04-24T00:50:02.512Z,810.77
2017-04-24T00:50:06.938Z,810.77
2017-04-24T00:50:11.243Z,810.74
2017-04-24T00:50:15.556Z,810.75
2017-04-24T00:50:19.873Z,810.78
2017-04-24T00:50:24.300Z,810.79
2017-04-24T00:50:28.725Z,810.75
2017-04-24T00:50:33.070Z,810.78
2017-04-24T00:50:37.372Z,810.78
2017-04-24T00:50:41.798Z,810.77
2017-04-24T00:50:46.103Z,810.75
2017-04-24T00:50:50.533Z,810.78
2017-04-24T00:50:54.971Z,810.78
2017-04-24T00:50:59.407Z,810.79
2017-04-24T00:51:03.834Z,810.82
2017-04-24T00:51:08.265Z,810.78
2017-04-24T00:51:12.696Z,810.78
2017-04-24T00:51:16.764Z,810.79
2017-04-24T00:51:21.067Z,810.78
2017-04-24T00:51:25.400Z,810.8
2017-04-24T00:51:29.826Z,810.78
2017-04-24T00:51:34.009Z,810.76
2017-04-24T00:51:38.435Z,810.82
2017-04-24T00:51:42.866Z,810.77
2017-04-24T00:51:47.287Z,810.82
2017-04-24T00:51:51.714Z,810.74
2017-04-24T00:51:56.138Z,810.77
2017-04-24T00:52:00.571Z,810.77
2017-04-24T00:52:04.898Z,810.76
2017-04-24T00:52:09.005Z,810.77
2017-04-24T00:52:13.308Z,810.78
2017-04-24T00:52:17.502Z,810.77
2017-04-24T00:52:21.819Z,810.78
2017-04-24T00:52:26.241Z,810.77
2017-04-24T00:52:30.575Z,810.76
2017-04-24T00:52:35.018Z,810.77
2017-04-24T00:52:39.441Z,810.77
2017-04-24T00:52:43.874Z,810.71
2017-04-24T00:52:48.301Z,810.68
2017-04-24T00:52:52.733Z,810.74
2017-04-24T00:52:57.171Z,810.75
2017-04-24T00:53:01.860Z,810.75
2017-04-24T00:53:06.283Z,810.78
2017-04-24T00:53:10.474Z,810.75
2017-04-24T00:53:14.789Z,810.72
2017-04-24T00:53:19.236Z,810.76
2017-04-24T00:53:23.666Z,810.74
2017-04-24T00:53:28.109Z,810.74
2017-04-24T00:53:32.415Z,810.75
2017-04-24T00:53:36.729Z,810.76
2017-04-24T00:53:41.160Z,810.71
2017-04-24T00:53:45.598Z,810.74
2017-04-24T00:53:49.921Z,810.73
2017-04-24T00:53:54.348Z,810.71
2017-04-24T00:53:58.777Z,810.71
2017-04-24T00:54:03.236Z,810.77
2017-04-24T00:54:07.547Z,810.72
2017-04-24T00:54:11.865Z,810.71
2017-04-24T00:54:16.053Z,810.74
2017-04-24T00:54:20.524Z,810.69
2017-04-24T00:54:24.950Z,810.66
2017-04-24T00:54:29.394Z,810.68
2017-04-24T00:54:33.590Z,810.7
2017-04-24T00:54:38.019Z,810.73
2017-04-24T00:54:42.441Z,810.71
2017-04-24T00:54:46.859Z,810.7
2017-04-24T00:54:51.279Z,810.67
2017-04-24T00:54:55.713Z,810.71
2017-04-24T00:55:00.149Z,810.72